Galar, Spain
Current Conditions -  °F | °C
As of 2:00 PM on Tuesday 21 Oct 2014 (Local Time) from LEPP Reporting Station
Clear Clear  
Wind Chill: 75°   Ceiling: Unl
Heat Index: 75°   Visibility: 6mi
Dew Point: 55°   Wind: 8mph
Humidity: 50%   Direction: 350°N
Pressure: 30.27"   Gusts: NA
Location:  42.76°N, 1.7°W
Report Text: LEPP 211200Z 35007KT 320V020 CAVOK 24/13 Q1025
Loading
Personal Weather Stations






























Interactive Weather Map
Tropical Storm Tracking
New forecast layout! Learn more

10-Day Weather Forecast

Advertisements
Track Severe Weather on mobile